sensor_id;sensor_type;location;lat;lon;timestamp;P1;durP1;ratioP1;P2;durP2;ratioP2
21894;SDS011;11112;51.270;7.224;2024-03-02T00:00:39;3.83;;;1.88;;
21894;SDS011;11112;51.270;7.224;2024-03-02T00:03:06;3.90;;;2.00;;
21894;SDS011;11112;51.270;7.224;2024-03-02T00:05:35;4.80;;;2.20;;
21894;SDS011;11112;51.270;7.224;2024-03-02T00:08:03;2.42;;;1.70;;
21894;SDS011;11112;51.270;7.224;2024-03-02T00:10:35;2.80;;;1.80;;
21894;SDS011;11112;51.270;7.224;2024-03-02T00:13:05;3.58;;;2.08;;
21894;SDS011;11112;51.270;7.224;2024-03-02T00:15:41;2.20;;;1.60;;
21894;SDS011;11112;51.270;7.224;2024-03-02T00:18:12;2.63;;;1.70;;
21894;SDS011;11112;51.270;7.224;2024-03-02T00:20:44;2.78;;;1.73;;
21894;SDS011;11112;51.270;7.224;2024-03-02T00:23:13;3.70;;;1.70;;
21894;SDS011;11112;51.270;7.224;2024-03-02T00:25:43;4.20;;;1.75;;
21894;SDS011;11112;51.270;7.224;2024-03-02T00:28:14;3.15;;;1.55;;
21894;SDS011;11112;51.270;7.224;2024-03-02T00:30:58;2.90;;;1.50;;
21894;SDS011;11112;51.270;7.224;2024-03-02T00:33:30;2.40;;;1.40;;
21894;SDS011;11112;51.270;7.224;2024-03-02T00:35:59;2.88;;;1.40;;
21894;SDS011;11112;51.270;7.224;2024-03-02T00:38:28;3.53;;;1.40;;
21894;SDS011;11112;51.270;7.224;2024-03-02T00:40:56;2.65;;;1.48;;
21894;SDS011;11112;51.270;7.224;2024-03-02T00:43:45;2.40;;;1.27;;
21894;SDS011;11112;51.270;7.224;2024-03-02T00:46:21;2.72;;;1.10;;
21894;SDS011;11112;51.270;7.224;2024-03-02T00:48:52;3.03;;;1.40;;
21894;SDS011;11112;51.270;7.224;2024-03-02T00:51:22;2.05;;;1.40;;
21894;SDS011;11112;51.270;7.224;2024-03-02T00:53:50;2.83;;;1.30;;
21894;SDS011;11112;51.270;7.224;2024-03-02T00:56:20;3.90;;;1.27;;
21894;SDS011;11112;51.270;7.224;2024-03-02T00:58:47;2.97;;;1.10;;
21894;SDS011;11112;51.270;7.224;2024-03-02T01:01:15;2.53;;;1.20;;
21894;SDS011;11112;51.270;7.224;2024-03-02T01:03:44;4.18;;;1.35;;
21894;SDS011;11112;51.270;7.224;2024-03-02T01:06:11;3.10;;;1.33;;
21894;SDS011;11112;51.270;7.224;2024-03-02T01:08:38;3.05;;;1.35;;
21894;SDS011;11112;51.270;7.224;2024-03-02T01:11:06;2.17;;;1.10;;
21894;SDS011;11112;51.270;7.224;2024-03-02T01:13:33;3.05;;;1.40;;
21894;SDS011;11112;51.270;7.224;2024-03-02T01:16:00;2.90;;;1.33;;
21894;SDS011;11112;51.270;7.224;2024-03-02T01:18:29;2.45;;;1.10;;
21894;SDS011;11112;51.270;7.224;2024-03-02T01:20:58;4.28;;;1.40;;
21894;SDS011;11112;51.270;7.224;2024-03-02T01:23:25;2.45;;;1.30;;
21894;SDS011;11112;51.270;7.224;2024-03-02T01:25:52;2.80;;;1.50;;
21894;SDS011;11112;51.270;7.224;2024-03-02T01:28:20;2.95;;;1.30;;
21894;SDS011;11112;51.270;7.224;2024-03-02T01:30:47;3.17;;;1.20;;
21894;SDS011;11112;51.270;7.224;2024-03-02T01:33:15;3.97;;;1.55;;
21894;SDS011;11112;51.270;7.224;2024-03-02T01:35:42;2.60;;;1.30;;
21894;SDS011;11112;51.270;7.224;2024-03-02T01:38:11;3.33;;;1.40;;
21894;SDS011;11112;51.270;7.224;2024-03-02T01:40:38;2.40;;;1.30;;
21894;SDS011;11112;51.270;7.224;2024-03-02T01:43:06;2.95;;;1.33;;
21894;SDS011;11112;51.270;7.224;2024-03-02T01:45:33;3.80;;;1.30;;
21894;SDS011;11112;51.270;7.224;2024-03-02T01:48:02;3.45;;;1.10;;
21894;SDS011;11112;51.270;7.224;2024-03-02T01:50:31;4.22;;;1.13;;
21894;SDS011;11112;51.270;7.224;2024-03-02T01:53:00;2.15;;;1.13;;
21894;SDS011;11112;51.270;7.224;2024-03-02T01:55:29;4.07;;;1.20;;
21894;SDS011;11112;51.270;7.224;2024-03-02T01:57:56;2.30;;;1.00;;
21894;SDS011;11112;51.270;7.224;2024-03-02T02:00:23;2.65;;;1.08;;
21894;SDS011;11112;51.270;7.224;2024-03-02T02:02:51;3.15;;;1.10;;
21894;SDS011;11112;51.270;7.224;2024-03-02T02:05:19;3.03;;;1.20;;
21894;SDS011;11112;51.270;7.224;2024-03-02T02:07:47;3.72;;;1.20;;
21894;SDS011;11112;51.270;7.224;2024-03-02T02:10:14;1.70;;;0.93;;
21894;SDS011;11112;51.270;7.224;2024-03-02T02:12:43;2.70;;;1.30;;
21894;SDS011;11112;51.270;7.224;2024-03-02T02:15:23;2.25;;;1.20;;
21894;SDS011;11112;51.270;7.224;2024-03-02T02:17:51;2.75;;;1.23;;
21894;SDS011;11112;51.270;7.224;2024-03-02T02:20:18;2.03;;;1.20;;
21894;SDS011;11112;51.270;7.224;2024-03-02T02:22:57;2.15;;;1.30;;
21894;SDS011;11112;51.270;7.224;2024-03-02T02:25:25;2.28;;;1.08;;
21894;SDS011;11112;51.270;7.224;2024-03-02T02:27:53;5.95;;;1.42;;
21894;SDS011;11112;51.270;7.224;2024-03-02T02:30:21;1.60;;;1.02;;
21894;SDS011;11112;51.270;7.224;2024-03-02T02:32:50;2.65;;;1.10;;
21894;SDS011;11112;51.270;7.224;2024-03-02T02:35:17;3.22;;;1.17;;
21894;SDS011;11112;51.270;7.224;2024-03-02T02:37:44;2.60;;;1.08;;
21894;SDS011;11112;51.270;7.224;2024-03-02T02:40:15;2.97;;;1.20;;
21894;SDS011;11112;51.270;7.224;2024-03-02T02:42:46;3.33;;;1.45;;
21894;SDS011;11112;51.270;7.224;2024-03-02T02:45:13;2.95;;;1.10;;
21894;SDS011;11112;51.270;7.224;2024-03-02T02:47:41;3.00;;;1.08;;
21894;SDS011;11112;51.270;7.224;2024-03-02T02:50:08;2.65;;;1.02;;
21894;SDS011;11112;51.270;7.224;2024-03-02T02:52:36;3.45;;;1.00;;
21894;SDS011;11112;51.270;7.224;2024-03-02T02:55:06;2.53;;;1.10;;
21894;SDS011;11112;51.270;7.224;2024-03-02T02:57:36;3.67;;;1.30;;
21894;SDS011;11112;51.270;7.224;2024-03-02T03:00:07;3.17;;;1.10;;
21894;SDS011;11112;51.270;7.224;2024-03-02T03:02:39;2.42;;;1.10;;
21894;SDS011;11112;51.270;7.224;2024-03-02T03:05:07;2.03;;;1.10;;
21894;SDS011;11112;51.270;7.224;2024-03-02T03:07:35;2.33;;;1.10;;
21894;SDS011;11112;51.270;7.224;2024-03-02T03:10:03;2.47;;;1.00;;
21894;SDS011;11112;51.270;7.224;2024-03-02T03:12:31;1.55;;;0.90;;
21894;SDS011;11112;51.270;7.224;2024-03-02T03:15:00;3.13;;;1.17;;
21894;SDS011;11112;51.270;7.224;2024-03-02T03:17:29;3.53;;;1.20;;
21894;SDS011;11112;51.270;7.224;2024-03-02T03:19:56;3.40;;;1.30;;
21894;SDS011;11112;51.270;7.224;2024-03-02T03:22:23;2.45;;;1.08;;
21894;SDS011;11112;51.270;7.224;2024-03-02T03:24:51;2.72;;;1.10;;
21894;SDS011;11112;51.270;7.224;2024-03-02T03:27:18;2.85;;;1.20;;
21894;SDS011;11112;51.270;7.224;2024-03-02T03:29:45;3.25;;;1.38;;
21894;SDS011;11112;51.270;7.224;2024-03-02T03:32:14;3.63;;;1.10;;
21894;SDS011;11112;51.270;7.224;2024-03-02T03:34:41;3.17;;;1.10;;
21894;SDS011;11112;51.270;7.224;2024-03-02T03:37:08;2.17;;;1.08;;
21894;SDS011;11112;51.270;7.224;2024-03-02T03:39:35;3.30;;;1.35;;
21894;SDS011;11112;51.270;7.224;2024-03-02T03:42:03;3.90;;;0.98;;
21894;SDS011;11112;51.270;7.224;2024-03-02T03:44:30;2.50;;;1.10;;
21894;SDS011;11112;51.270;7.224;2024-03-02T03:46:57;2.72;;;1.05;;
21894;SDS011;11112;51.270;7.224;2024-03-02T03:49:27;2.80;;;1.02;;
21894;SDS011;11112;51.270;7.224;2024-03-02T03:51:54;3.38;;;1.17;;
21894;SDS011;11112;51.270;7.224;2024-03-02T03:54:21;2.33;;;0.98;;
21894;SDS011;11112;51.270;7.224;2024-03-02T03:56:48;3.47;;;1.10;;
21894;SDS011;11112;51.270;7.224;2024-03-02T03:59:15;2.25;;;1.05;;
21894;SDS011;11112;51.270;7.224;2024-03-02T04:01:42;2.90;;;1.17;;
21894;SDS011;11112;51.270;7.224;2024-03-02T04:04:09;3.40;;;1.08;;
21894;SDS011;11112;51.270;7.224;2024-03-02T04:06:38;2.67;;;1.00;;
21894;SDS011;11112;51.270;7.224;2024-03-02T04:09:05;3.78;;;1.23;;
21894;SDS011;11112;51.270;7.224;2024-03-02T04:11:33;2.15;;;1.00;;
21894;SDS011;11112;51.270;7.224;2024-03-02T04:14:00;3.08;;;1.20;;
21894;SDS011;11112;51.270;7.224;2024-03-02T04:16:27;3.22;;;1.50;;
21894;SDS011;11112;51.270;7.224;2024-03-02T04:18:54;2.60;;;1.20;;
21894;SDS011;11112;51.270;7.224;2024-03-02T04:21:21;3.97;;;1.17;;
21894;SDS011;11112;51.270;7.224;2024-03-02T04:23:50;2.55;;;1.27;;
21894;SDS011;11112;51.270;7.224;2024-03-02T04:26:17;2.45;;;1.20;;
21894;SDS011;11112;51.270;7.224;2024-03-02T04:28:47;2.38;;;1.30;;
21894;SDS011;11112;51.270;7.224;2024-03-02T04:31:14;3.22;;;1.50;;
21894;SDS011;11112;51.270;7.224;2024-03-02T04:33:41;2.90;;;1.35;;
21894;SDS011;11112;51.270;7.224;2024-03-02T04:36:08;3.15;;;1.25;;
21894;SDS011;11112;51.270;7.224;2024-03-02T04:38:36;2.60;;;1.20;;
21894;SDS011;11112;51.270;7.224;2024-03-02T04:41:05;3.65;;;1.55;;
21894;SDS011;11112;51.270;7.224;2024-03-02T04:43:32;5.07;;;1.38;;
21894;SDS011;11112;51.270;7.224;2024-03-02T04:46:00;3.00;;;1.30;;
21894;SDS011;11112;51.270;7.224;2024-03-02T04:48:27;2.63;;;1.23;;
21894;SDS011;11112;51.270;7.224;2024-03-02T04:50:54;4.38;;;1.40;;
21894;SDS011;11112;51.270;7.224;2024-03-02T04:53:21;3.75;;;1.63;;
21894;SDS011;11112;51.270;7.224;2024-03-02T04:55:48;2.60;;;1.58;;
21894;SDS011;11112;51.270;7.224;2024-03-02T04:58:46;4.35;;;1.70;;
21894;SDS011;11112;51.270;7.224;2024-03-02T05:01:13;3.45;;;1.55;;
21894;SDS011;11112;51.270;7.224;2024-03-02T05:03:42;3.58;;;1.60;;
21894;SDS011;11112;51.270;7.224;2024-03-02T05:06:10;2.95;;;1.65;;
21894;SDS011;11112;51.270;7.224;2024-03-02T05:08:37;3.08;;;1.50;;
21894;SDS011;11112;51.270;7.224;2024-03-02T05:11:04;5.25;;;1.90;;
21894;SDS011;11112;51.270;7.224;2024-03-02T05:13:46;5.90;;;1.88;;
21894;SDS011;11112;51.270;7.224;2024-03-02T05:16:13;3.83;;;1.60;;
21894;SDS011;11112;51.270;7.224;2024-03-02T05:18:40;4.00;;;1.90;;
21894;SDS011;11112;51.270;7.224;2024-03-02T05:21:07;3.03;;;1.75;;
21894;SDS011;11112;51.270;7.224;2024-03-02T05:23:34;4.65;;;2.00;;
21894;SDS011;11112;51.270;7.224;2024-03-02T05:26:02;3.72;;;1.77;;
21894;SDS011;11112;51.270;7.224;2024-03-02T05:28:29;3.20;;;1.88;;
21894;SDS011;11112;51.270;7.224;2024-03-02T05:30:57;3.97;;;2.03;;
21894;SDS011;11112;51.270;7.224;2024-03-02T05:33:24;4.53;;;1.90;;
21894;SDS011;11112;51.270;7.224;2024-03-02T05:35:51;4.75;;;2.25;;
21894;SDS011;11112;51.270;7.224;2024-03-02T05:38:19;3.22;;;1.90;;
21894;SDS011;11112;51.270;7.224;2024-03-02T05:40:46;4.53;;;2.10;;
21894;SDS011;11112;51.270;7.224;2024-03-02T05:43:14;5.22;;;2.30;;
21894;SDS011;11112;51.270;7.224;2024-03-02T05:45:41;3.97;;;2.20;;
21894;SDS011;11112;51.270;7.224;2024-03-02T05:48:09;3.40;;;1.92;;
21894;SDS011;11112;51.270;7.224;2024-03-02T05:50:36;5.90;;;2.42;;
21894;SDS011;11112;51.270;7.224;2024-03-02T05:53:03;7.03;;;2.50;;
21894;SDS011;11112;51.270;7.224;2024-03-02T05:55:30;6.38;;;2.40;;
21894;SDS011;11112;51.270;7.224;2024-03-02T05:57:57;4.75;;;2.70;;
21894;SDS011;11112;51.270;7.224;2024-03-02T06:00:40;5.28;;;2.75;;
21894;SDS011;11112;51.270;7.224;2024-03-02T06:03:09;5.47;;;2.88;;
21894;SDS011;11112;51.270;7.224;2024-03-02T06:05:36;6.05;;;2.70;;
21894;SDS011;11112;51.270;7.224;2024-03-02T06:08:03;5.80;;;2.80;;
21894;SDS011;11112;51.270;7.224;2024-03-02T06:10:31;5.60;;;2.95;;
21894;SDS011;11112;51.270;7.224;2024-03-02T06:12:58;4.75;;;2.70;;
21894;SDS011;11112;51.270;7.224;2024-03-02T06:15:25;4.30;;;2.67;;
21894;SDS011;11112;51.270;7.224;2024-03-02T06:17:52;5.07;;;2.88;;
21894;SDS011;11112;51.270;7.224;2024-03-02T06:20:20;6.85;;;3.00;;
21894;SDS011;11112;51.270;7.224;2024-03-02T06:22:47;5.32;;;2.83;;
21894;SDS011;11112;51.270;7.224;2024-03-02T06:25:14;5.63;;;3.35;;
21894;SDS011;11112;51.270;7.224;2024-03-02T06:27:41;4.47;;;2.90;;
21894;SDS011;11112;51.270;7.224;2024-03-02T06:30:09;5.18;;;3.00;;
21894;SDS011;11112;51.270;7.224;2024-03-02T06:32:37;4.80;;;2.47;;
21894;SDS011;11112;51.270;7.224;2024-03-02T06:35:05;4.97;;;2.92;;
21894;SDS011;11112;51.270;7.224;2024-03-02T06:37:36;4.88;;;2.75;;
21894;SDS011;11112;51.270;7.224;2024-03-02T06:40:05;5.20;;;2.90;;
21894;SDS011;11112;51.270;7.224;2024-03-02T06:42:33;4.97;;;3.10;;
21894;SDS011;11112;51.270;7.224;2024-03-02T06:45:01;4.72;;;2.65;;
21894;SDS011;11112;51.270;7.224;2024-03-02T06:47:29;6.78;;;3.35;;
21894;SDS011;11112;51.270;7.224;2024-03-02T06:49:56;5.82;;;3.50;;
21894;SDS011;11112;51.270;7.224;2024-03-02T06:52:23;6.10;;;3.15;;
21894;SDS011;11112;51.270;7.224;2024-03-02T06:54:52;6.85;;;3.30;;
21894;SDS011;11112;51.270;7.224;2024-03-02T06:57:19;6.82;;;3.42;;
21894;SDS011;11112;51.270;7.224;2024-03-02T06:59:46;6.45;;;3.55;;
21894;SDS011;11112;51.270;7.224;2024-03-02T07:02:15;6.05;;;3.55;;
21894;SDS011;11112;51.270;7.224;2024-03-02T07:04:42;6.10;;;3.47;;
21894;SDS011;11112;51.270;7.224;2024-03-02T07:07:10;6.75;;;3.63;;
21894;SDS011;11112;51.270;7.224;2024-03-02T07:09:37;7.25;;;3.40;;
21894;SDS011;11112;51.270;7.224;2024-03-02T07:12:06;6.18;;;3.55;;
21894;SDS011;11112;51.270;7.224;2024-03-02T07:14:34;5.68;;;3.80;;
21894;SDS011;11112;51.270;7.224;2024-03-02T07:17:19;5.75;;;3.47;;
21894;SDS011;11112;51.270;7.224;2024-03-02T07:19:46;5.38;;;3.45;;
21894;SDS011;11112;51.270;7.224;2024-03-02T07:22:13;5.32;;;3.38;;
21894;SDS011;11112;51.270;7.224;2024-03-02T07:24:40;6.20;;;3.50;;
21894;SDS011;11112;51.270;7.224;2024-03-02T07:27:11;6.30;;;3.05;;
21894;SDS011;11112;51.270;7.224;2024-03-02T07:29:38;6.78;;;3.05;;
21894;SDS011;11112;51.270;7.224;2024-03-02T07:32:06;4.18;;;2.97;;
21894;SDS011;11112;51.270;7.224;2024-03-02T07:34:34;5.38;;;2.95;;
21894;SDS011;11112;51.270;7.224;2024-03-02T07:37:02;6.93;;;3.55;;
21894;SDS011;11112;51.270;7.224;2024-03-02T07:39:30;6.38;;;3.63;;
21894;SDS011;11112;51.270;7.224;2024-03-02T07:41:57;7.00;;;3.65;;
21894;SDS011;11112;51.270;7.224;2024-03-02T07:44:26;4.70;;;2.90;;
21894;SDS011;11112;51.270;7.224;2024-03-02T07:46:53;5.05;;;3.00;;
21894;SDS011;11112;51.270;7.224;2024-03-02T07:49:20;7.43;;;3.05;;
21894;SDS011;11112;51.270;7.224;2024-03-02T07:51:48;5.53;;;3.13;;
21894;SDS011;11112;51.270;7.224;2024-03-02T07:54:15;5.20;;;2.88;;
21894;SDS011;11112;51.270;7.224;2024-03-02T07:56:42;8.02;;;3.22;;
21894;SDS011;11112;51.270;7.224;2024-03-02T07:59:09;4.80;;;2.70;;
21894;SDS011;11112;51.270;7.224;2024-03-02T08:01:38;4.50;;;2.60;;
21894;SDS011;11112;51.270;7.224;2024-03-02T08:04:05;5.65;;;2.60;;
21894;SDS011;11112;51.270;7.224;2024-03-02T08:06:32;4.07;;;2.40;;
21894;SDS011;11112;51.270;7.224;2024-03-02T08:09:00;5.95;;;2.40;;
21894;SDS011;11112;51.270;7.224;2024-03-02T08:11:29;6.55;;;2.92;;
21894;SDS011;11112;51.270;7.224;2024-03-02T08:13:57;5.18;;;2.50;;
21894;SDS011;11112;51.270;7.224;2024-03-02T08:16:24;5.15;;;2.53;;
21894;SDS011;11112;51.270;7.224;2024-03-02T08:18:52;5.40;;;2.47;;
21894;SDS011;11112;51.270;7.224;2024-03-02T08:21:22;5.28;;;2.30;;
21894;SDS011;11112;51.270;7.224;2024-03-02T08:23:50;4.47;;;2.33;;
21894;SDS011;11112;51.270;7.224;2024-03-02T08:26:17;4.50;;;2.28;;
21894;SDS011;11112;51.270;7.224;2024-03-02T08:28:44;5.88;;;2.35;;
21894;SDS011;11112;51.270;7.224;2024-03-02T08:31:11;4.60;;;2.40;;
21894;SDS011;11112;51.270;7.224;2024-03-02T08:33:38;4.75;;;2.20;;
21894;SDS011;11112;51.270;7.224;2024-03-02T08:36:07;5.30;;;2.60;;
21894;SDS011;11112;51.270;7.224;2024-03-02T08:38:36;4.53;;;2.38;;
21894;SDS011;11112;51.270;7.224;2024-03-02T08:41:03;5.00;;;2.20;;
21894;SDS011;11112;51.270;7.224;2024-03-02T08:43:31;4.30;;;2.38;;
21894;SDS011;11112;51.270;7.224;2024-03-02T08:45:58;4.50;;;1.88;;
21894;SDS011;11112;51.270;7.224;2024-03-02T08:48:25;4.40;;;2.00;;
21894;SDS011;11112;51.270;7.224;2024-03-02T08:50:52;4.80;;;2.05;;
21894;SDS011;11112;51.270;7.224;2024-03-02T08:53:21;3.92;;;2.10;;
21894;SDS011;11112;51.270;7.224;2024-03-02T08:55:48;3.83;;;1.88;;
21894;SDS011;11112;51.270;7.224;2024-03-02T08:58:15;4.43;;;2.00;;
21894;SDS011;11112;51.270;7.224;2024-03-02T09:00:42;3.80;;;2.20;;
21894;SDS011;11112;51.270;7.224;2024-03-02T09:03:10;5.53;;;2.05;;
21894;SDS011;11112;51.270;7.224;2024-03-02T09:05:37;4.18;;;2.20;;
21894;SDS011;11112;51.270;7.224;2024-03-02T09:08:04;5.63;;;2.35;;
21894;SDS011;11112;51.270;7.224;2024-03-02T09:10:34;3.95;;;1.83;;
21894;SDS011;11112;51.270;7.224;2024-03-02T09:13:01;3.03;;;1.90;;
21894;SDS011;11112;51.270;7.224;2024-03-02T09:15:28;3.22;;;1.77;;
21894;SDS011;11112;51.270;7.224;2024-03-02T09:17:55;3.60;;;1.90;;
21894;SDS011;11112;51.270;7.224;2024-03-02T09:20:22;4.05;;;1.55;;
21894;SDS011;11112;51.270;7.224;2024-03-02T09:22:50;3.28;;;1.60;;
21894;SDS011;11112;51.270;7.224;2024-03-02T09:25:16;3.33;;;1.55;;
21894;SDS011;11112;51.270;7.224;2024-03-02T09:27:45;4.03;;;1.50;;
21894;SDS011;11112;51.270;7.224;2024-03-02T09:30:12;3.10;;;1.38;;
21894;SDS011;11112;51.270;7.224;2024-03-02T09:32:40;2.75;;;1.30;;
21894;SDS011;11112;51.270;7.224;2024-03-02T09:35:07;4.53;;;1.20;;
21894;SDS011;11112;51.270;7.224;2024-03-02T09:37:35;3.33;;;1.15;;
21894;SDS011;11112;51.270;7.224;2024-03-02T09:40:02;4.43;;;1.20;;
21894;SDS011;11112;51.270;7.224;2024-03-02T09:42:31;3.30;;;1.20;;
21894;SDS011;11112;51.270;7.224;2024-03-02T09:45:00;2.83;;;1.10;;
21894;SDS011;11112;51.270;7.224;2024-03-02T09:47:27;2.58;;;1.25;;
21894;SDS011;11112;51.270;7.224;2024-03-02T09:49:54;3.10;;;1.20;;
21894;SDS011;11112;51.270;7.224;2024-03-02T09:52:22;2.35;;;1.10;;
21894;SDS011;11112;51.270;7.224;2024-03-02T09:54:49;4.18;;;1.23;;
21894;SDS011;11112;51.270;7.224;2024-03-02T09:57:16;4.45;;;1.20;;
21894;SDS011;11112;51.270;7.224;2024-03-02T09:59:43;4.07;;;0.90;;
21894;SDS011;11112;51.270;7.224;2024-03-02T10:02:12;2.38;;;0.90;;
21894;SDS011;11112;51.270;7.224;2024-03-02T10:04:39;3.25;;;1.05;;
21894;SDS011;11112;51.270;7.224;2024-03-02T10:07:09;2.15;;;1.10;;
21894;SDS011;11112;51.270;7.224;2024-03-02T10:09:41;2.88;;;1.10;;
21894;SDS011;11112;51.270;7.224;2024-03-02T10:12:11;3.00;;;1.05;;
21894;SDS011;11112;51.270;7.224;2024-03-02T10:14:41;2.00;;;0.82;;
21894;SDS011;11112;51.270;7.224;2024-03-02T10:17:09;3.45;;;1.13;;
21894;SDS011;11112;51.270;7.224;2024-03-02T10:19:38;1.77;;;0.70;;
21894;SDS011;11112;51.270;7.224;2024-03-02T10:22:06;4.57;;;1.20;;
21894;SDS011;11112;51.270;7.224;2024-03-02T10:24:35;6.43;;;1.40;;
21894;SDS011;11112;51.270;7.224;2024-03-02T10:27:07;3.78;;;1.20;;
21894;SDS011;11112;51.270;7.224;2024-03-02T10:29:36;3.78;;;1.65;;
21894;SDS011;11112;51.270;7.224;2024-03-02T10:32:05;2.17;;;1.02;;
21894;SDS011;11112;51.270;7.224;2024-03-02T10:34:35;3.50;;;1.15;;
21894;SDS011;11112;51.270;7.224;2024-03-02T10:37:04;2.13;;;0.95;;
21894;SDS011;11112;51.270;7.224;2024-03-02T10:39:34;4.55;;;1.30;;
21894;SDS011;11112;51.270;7.224;2024-03-02T10:42:02;2.83;;;1.15;;
21894;SDS011;11112;51.270;7.224;2024-03-02T10:44:31;5.28;;;1.30;;
21894;SDS011;11112;51.270;7.224;2024-03-02T10:47:00;2.95;;;1.10;;
21894;SDS011;11112;51.270;7.224;2024-03-02T10:49:29;2.65;;;1.00;;
21894;SDS011;11112;51.270;7.224;2024-03-02T10:51:57;2.47;;;1.08;;
21894;SDS011;11112;51.270;7.224;2024-03-02T10:54:26;5.22;;;0.93;;
21894;SDS011;11112;51.270;7.224;2024-03-02T10:56:55;3.35;;;1.00;;
21894;SDS011;11112;51.270;7.224;2024-03-02T10:59:27;5.35;;;1.05;;
21894;SDS011;11112;51.270;7.224;2024-03-02T11:02:00;5.68;;;1.15;;
21894;SDS011;11112;51.270;7.224;2024-03-02T11:04:28;3.47;;;1.00;;
21894;SDS011;11112;51.270;7.224;2024-03-02T11:06:58;4.03;;;1.70;;
21894;SDS011;11112;51.270;7.224;2024-03-02T11:09:31;5.57;;;1.20;;
21894;SDS011;11112;51.270;7.224;2024-03-02T11:12:06;2.90;;;0.90;;
21894;SDS011;11112;51.270;7.224;2024-03-02T11:14:40;2.95;;;0.90;;
21894;SDS011;11112;51.270;7.224;2024-03-02T11:17:09;2.35;;;0.98;;
21894;SDS011;11112;51.270;7.224;2024-03-02T11:19:38;1.55;;;0.75;;
21894;SDS011;11112;51.270;7.224;2024-03-02T11:22:06;2.95;;;1.00;;
21894;SDS011;11112;51.270;7.224;2024-03-02T11:24:36;6.80;;;0.90;;
21894;SDS011;11112;51.270;7.224;2024-03-02T11:27:04;2.58;;;0.95;;
21894;SDS011;11112;51.270;7.224;2024-03-02T11:29:45;4.60;;;0.85;;
21894;SDS011;11112;51.270;7.224;2024-03-02T11:32:17;3.25;;;0.88;;
21894;SDS011;11112;51.270;7.224;2024-03-02T11:34:47;1.70;;;0.90;;
21894;SDS011;11112;51.270;7.224;2024-03-02T11:37:16;2.72;;;0.90;;
21894;SDS011;11112;51.270;7.224;2024-03-02T11:39:47;2.30;;;1.10;;
21894;SDS011;11112;51.270;7.224;2024-03-02T11:42:16;2.72;;;0.85;;
21894;SDS011;11112;51.270;7.224;2024-03-02T11:44:44;1.48;;;0.50;;
21894;SDS011;11112;51.270;7.224;2024-03-02T11:47:14;1.38;;;0.70;;
21894;SDS011;11112;51.270;7.224;2024-03-02T11:49:43;3.33;;;0.85;;
21894;SDS011;11112;51.270;7.224;2024-03-02T11:52:12;4.93;;;0.90;;
21894;SDS011;11112;51.270;7.224;2024-03-02T11:54:42;2.17;;;0.80;;
21894;SDS011;11112;51.270;7.224;2024-03-02T11:57:15;2.28;;;0.88;;
21894;SDS011;11112;51.270;7.224;2024-03-02T11:59:44;2.80;;;0.70;;
21894;SDS011;11112;51.270;7.224;2024-03-02T12:02:15;2.30;;;1.00;;
21894;SDS011;11112;51.270;7.224;2024-03-02T12:04:43;2.05;;;0.80;;
21894;SDS011;11112;51.270;7.224;2024-03-02T12:07:11;2.22;;;0.70;;
21894;SDS011;11112;51.270;7.224;2024-03-02T12:09:39;3.45;;;2.53;;
21894;SDS011;11112;51.270;7.224;2024-03-02T12:12:06;2.53;;;1.02;;
21894;SDS011;11112;51.270;7.224;2024-03-02T12:14:38;2.00;;;0.55;;
21894;SDS011;11112;51.270;7.224;2024-03-02T12:17:05;3.00;;;1.10;;
21894;SDS011;11112;51.270;7.224;2024-03-02T12:19:32;1.20;;;0.50;;
21894;SDS011;11112;51.270;7.224;2024-03-02T12:22:00;6.68;;;0.80;;
21894;SDS011;11112;51.270;7.224;2024-03-02T12:24:28;2.50;;;0.82;;
21894;SDS011;11112;51.270;7.224;2024-03-02T12:26:56;2.08;;;0.80;;
21894;SDS011;11112;51.270;7.224;2024-03-02T12:29:23;2.13;;;0.60;;
21894;SDS011;11112;51.270;7.224;2024-03-02T12:31:52;1.90;;;0.60;;
21894;SDS011;11112;51.270;7.224;2024-03-02T12:34:20;2.58;;;0.60;;
21894;SDS011;11112;51.270;7.224;2024-03-02T12:36:48;1.38;;;0.50;;
21894;SDS011;11112;51.270;7.224;2024-03-02T12:39:18;1.98;;;0.60;;
21894;SDS011;11112;51.270;7.224;2024-03-02T12:41:48;1.40;;;0.50;;
21894;SDS011;11112;51.270;7.224;2024-03-02T12:44:16;1.55;;;0.60;;
21894;SDS011;11112;51.270;7.224;2024-03-02T12:46:43;1.15;;;0.50;;
21894;SDS011;11112;51.270;7.224;2024-03-02T12:49:13;1.08;;;0.43;;
21894;SDS011;11112;51.270;7.224;2024-03-02T12:51:42;2.20;;;0.50;;
21894;SDS011;11112;51.270;7.224;2024-03-02T12:54:12;0.93;;;0.40;;
21894;SDS011;11112;51.270;7.224;2024-03-02T12:56:40;1.17;;;0.60;;
21894;SDS011;11112;51.270;7.224;2024-03-02T12:59:17;1.20;;;0.50;;
21894;SDS011;11112;51.270;7.224;2024-03-02T13:01:50;1.58;;;0.40;;
21894;SDS011;11112;51.270;7.224;2024-03-02T13:04:22;0.85;;;0.30;;
21894;SDS011;11112;51.270;7.224;2024-03-02T13:06:51;2.73;;;0.50;;
21894;SDS011;11112;51.270;7.224;2024-03-02T13:09:18;1.80;;;0.50;;
21894;SDS011;11112;51.270;7.224;2024-03-02T13:11:45;0.95;;;0.50;;
21894;SDS011;11112;51.270;7.224;2024-03-02T13:14:13;1.40;;;0.52;;
21894;SDS011;11112;51.270;7.224;2024-03-02T13:16:40;1.08;;;0.50;;
21894;SDS011;11112;51.270;7.224;2024-03-02T13:19:07;1.58;;;1.00;;
21894;SDS011;11112;51.270;7.224;2024-03-02T13:21:36;1.38;;;0.60;;
21894;SDS011;11112;51.270;7.224;2024-03-02T13:24:03;0.73;;;0.50;;
21894;SDS011;11112;51.270;7.224;2024-03-02T13:26:32;1.17;;;0.40;;
21894;SDS011;11112;51.270;7.224;2024-03-02T13:28:59;2.67;;;0.60;;
21894;SDS011;11112;51.270;7.224;2024-03-02T13:31:26;3.45;;;0.70;;
21894;SDS011;11112;51.270;7.224;2024-03-02T13:33:53;1.45;;;0.50;;
21894;SDS011;11112;51.270;7.224;2024-03-02T13:36:20;2.13;;;0.47;;
21894;SDS011;11112;51.270;7.224;2024-03-02T13:38:48;2.58;;;0.50;;
21894;SDS011;11112;51.270;7.224;2024-03-02T13:41:15;1.75;;;0.60;;
21894;SDS011;11112;51.270;7.224;2024-03-02T13:43:42;0.90;;;0.43;;
21894;SDS011;11112;51.270;7.224;2024-03-02T13:46:10;0.80;;;0.40;;
21894;SDS011;11112;51.270;7.224;2024-03-02T13:48:37;1.35;;;0.40;;
21894;SDS011;11112;51.270;7.224;2024-03-02T13:51:04;1.60;;;0.45;;
21894;SDS011;11112;51.270;7.224;2024-03-02T13:53:31;2.25;;;0.50;;
21894;SDS011;11112;51.270;7.224;2024-03-02T13:56:00;2.00;;;0.50;;
21894;SDS011;11112;51.270;7.224;2024-03-02T13:58:27;1.63;;;0.45;;
21894;SDS011;11112;51.270;7.224;2024-03-02T14:00:54;1.40;;;0.55;;
21894;SDS011;11112;51.270;7.224;2024-03-02T14:03:22;1.88;;;0.65;;
21894;SDS011;11112;51.270;7.224;2024-03-02T14:05:49;1.23;;;0.60;;
21894;SDS011;11112;51.270;7.224;2024-03-02T14:08:17;2.30;;;0.68;;
21894;SDS011;11112;51.270;7.224;2024-03-02T14:10:44;0.70;;;0.40;;
21894;SDS011;11112;51.270;7.224;2024-03-02T14:13:13;2.22;;;0.60;;
21894;SDS011;11112;51.270;7.224;2024-03-02T14:15:40;1.20;;;0.60;;
21894;SDS011;11112;51.270;7.224;2024-03-02T14:18:08;1.30;;;0.60;;
21894;SDS011;11112;51.270;7.224;2024-03-02T14:20:36;2.20;;;1.05;;
21894;SDS011;11112;51.270;7.224;2024-03-02T14:23:03;1.65;;;0.68;;
21894;SDS011;11112;51.270;7.224;2024-03-02T14:25:30;1.45;;;0.60;;
21894;SDS011;11112;51.270;7.224;2024-03-02T14:27:59;2.97;;;0.70;;
21894;SDS011;11112;51.270;7.224;2024-03-02T14:30:27;2.47;;;0.68;;
21894;SDS011;11112;51.270;7.224;2024-03-02T14:32:54;1.85;;;0.80;;
21894;SDS011;11112;51.270;7.224;2024-03-02T14:35:22;3.05;;;1.00;;
21894;SDS011;11112;51.270;7.224;2024-03-02T14:37:49;2.03;;;0.80;;
21894;SDS011;11112;51.270;7.224;2024-03-02T14:40:16;1.88;;;1.00;;
21894;SDS011;11112;51.270;7.224;2024-03-02T14:42:43;3.63;;;1.08;;
21894;SDS011;11112;51.270;7.224;2024-03-02T14:45:12;2.10;;;0.90;;
21894;SDS011;11112;51.270;7.224;2024-03-02T14:47:41;2.30;;;1.20;;
21894;SDS011;11112;51.270;7.224;2024-03-02T14:50:09;2.60;;;1.05;;
21894;SDS011;11112;51.270;7.224;2024-03-02T14:52:36;2.58;;;1.30;;
21894;SDS011;11112;51.270;7.224;2024-03-02T14:55:03;2.15;;;1.15;;